Terminal Aerodrome Forecast
Issued by NWS Wilmington, OH

Current Version | Previous Version | Graphics & Text | Print | Product List | Glossary On
Versions: 1 2 3 4 5 6 7 8 9 10 11 12 13 14 15 16 17 18 19 20 21 22 23 24 25 26 27 28 29 30 31 32 33 34
000
FTUS41 KILN 171619 AAB
TAFCVG
TAF AMD
KCVG 171619Z 1716/1818 23013G19KT P6SM SCT015 BKN050
     FM171700 25012G20KT P6SM OVC025
     FM180000 26012G18KT P6SM OVC015
     FM180600 26010KT P6SM OVC011=

USA.gov is the U.S. government's official web portal to all federal, state and local government web resources and services.